sensor_id;sensor_type;location;lat;lon;timestamp;P1;durP1;ratioP1;P2;durP2;ratioP2
63945;SDS011;50122;56.330;43.838;2023-02-01T00:01:09;24.60;;;11.38;;
63945;SDS011;50122;56.330;43.838;2023-02-01T00:03:37;21.17;;;10.15;;
63945;SDS011;50122;56.330;43.838;2023-02-01T00:06:03;17.55;;;9.30;;
63945;SDS011;50122;56.330;43.838;2023-02-01T00:08:30;19.02;;;9.85;;
63945;SDS011;50122;56.330;43.838;2023-02-01T00:11:01;15.02;;;8.70;;
63945;SDS011;50122;56.330;43.838;2023-02-01T00:13:30;17.42;;;9.32;;
63945;SDS011;50122;56.330;43.838;2023-02-01T00:18:33;18.27;;;9.87;;
63945;SDS011;50122;56.330;43.838;2023-02-01T00:21:00;17.58;;;9.15;;
63945;SDS011;50122;56.330;43.838;2023-02-01T00:23:27;19.35;;;9.40;;
63945;SDS011;50122;56.330;43.838;2023-02-01T00:25:54;19.02;;;10.40;;
63945;SDS011;50122;56.330;43.838;2023-02-01T00:28:20;15.15;;;8.38;;
63945;SDS011;50122;56.330;43.838;2023-02-01T00:30:55;16.65;;;9.45;;
63945;SDS011;50122;56.330;43.838;2023-02-01T00:33:23;18.53;;;9.33;;
63945;SDS011;50122;56.330;43.838;2023-02-01T00:35:50;17.90;;;9.15;;
63945;SDS011;50122;56.330;43.838;2023-02-01T00:38:16;18.15;;;9.85;;
63945;SDS011;50122;56.330;43.838;2023-02-01T00:40:44;15.43;;;9.00;;
63945;SDS011;50122;56.330;43.838;2023-02-01T00:43:13;18.75;;;9.85;;
63945;SDS011;50122;56.330;43.838;2023-02-01T00:45:39;18.13;;;9.85;;
63945;SDS011;50122;56.330;43.838;2023-02-01T00:48:06;18.08;;;9.05;;
63945;SDS011;50122;56.330;43.838;2023-02-01T00:50:33;18.42;;;9.60;;
63945;SDS011;50122;56.330;43.838;2023-02-01T00:52:59;17.80;;;10.07;;
63945;SDS011;50122;56.330;43.838;2023-02-01T00:55:28;16.90;;;9.02;;
63945;SDS011;50122;56.330;43.838;2023-02-01T00:57:55;17.10;;;9.52;;
63945;SDS011;50122;56.330;43.838;2023-02-01T01:00:21;17.70;;;9.30;;
63945;SDS011;50122;56.330;43.838;2023-02-01T01:02:49;18.15;;;9.95;;
63945;SDS011;50122;56.330;43.838;2023-02-01T01:05:15;16.90;;;9.43;;
63945;SDS011;50122;56.330;43.838;2023-02-01T01:07:42;17.73;;;9.25;;
63945;SDS011;50122;56.330;43.838;2023-02-01T01:10:09;17.35;;;9.65;;
63945;SDS011;50122;56.330;43.838;2023-02-01T01:12:36;17.05;;;9.68;;
63945;SDS011;50122;56.330;43.838;2023-02-01T01:15:02;19.20;;;9.73;;
63945;SDS011;50122;56.330;43.838;2023-02-01T01:17:31;16.60;;;8.70;;
63945;SDS011;50122;56.330;43.838;2023-02-01T01:19:58;16.88;;;9.52;;
63945;SDS011;50122;56.330;43.838;2023-02-01T01:22:25;21.15;;;11.70;;
63945;SDS011;50122;56.330;43.838;2023-02-01T01:24:51;20.55;;;10.18;;
63945;SDS011;50122;56.330;43.838;2023-02-01T01:27:18;17.95;;;10.02;;
63945;SDS011;50122;56.330;43.838;2023-02-01T01:29:49;15.80;;;9.18;;
63945;SDS011;50122;56.330;43.838;2023-02-01T01:32:16;17.30;;;9.85;;
63945;SDS011;50122;56.330;43.838;2023-02-01T01:34:43;17.50;;;9.57;;
63945;SDS011;50122;56.330;43.838;2023-02-01T01:37:09;19.73;;;10.60;;
63945;SDS011;50122;56.330;43.838;2023-02-01T01:39:37;15.55;;;8.52;;
63945;SDS011;50122;56.330;43.838;2023-02-01T01:42:03;15.82;;;8.98;;
63945;SDS011;50122;56.330;43.838;2023-02-01T01:47:40;17.42;;;9.77;;
63945;SDS011;50122;56.330;43.838;2023-02-01T01:50:12;18.05;;;10.15;;
63945;SDS011;50122;56.330;43.838;2023-02-01T01:52:43;16.08;;;9.57;;
63945;SDS011;50122;56.330;43.838;2023-02-01T01:55:13;18.67;;;9.50;;
63945;SDS011;50122;56.330;43.838;2023-02-01T01:57:44;17.10;;;10.00;;
63945;SDS011;50122;56.330;43.838;2023-02-01T02:00:16;17.50;;;9.50;;
63945;SDS011;50122;56.330;43.838;2023-02-01T02:02:47;17.52;;;9.15;;
63945;SDS011;50122;56.330;43.838;2023-02-01T02:05:18;17.38;;;9.52;;
63945;SDS011;50122;56.330;43.838;2023-02-01T02:07:46;18.92;;;10.05;;
63945;SDS011;50122;56.330;43.838;2023-02-01T02:10:16;16.40;;;9.27;;
63945;SDS011;50122;56.330;43.838;2023-02-01T02:12:44;19.15;;;9.70;;
63945;SDS011;50122;56.330;43.838;2023-02-01T02:15:14;22.15;;;11.90;;
63945;SDS011;50122;56.330;43.838;2023-02-01T02:17:49;23.20;;;13.55;;
63945;SDS011;50122;56.330;43.838;2023-02-01T02:23:20;17.67;;;10.02;;
63945;SDS011;50122;56.330;43.838;2023-02-01T02:26:17;19.23;;;10.70;;
63945;SDS011;50122;56.330;43.838;2023-02-01T02:37:57;21.63;;;10.25;;
63945;SDS011;50122;56.330;43.838;2023-02-01T02:40:57;17.02;;;9.85;;
63945;SDS011;50122;56.330;43.838;2023-02-01T02:46:37;19.13;;;10.80;;
63945;SDS011;50122;56.330;43.838;2023-02-01T02:49:49;17.67;;;10.63;;
63945;SDS011;50122;56.330;43.838;2023-02-01T02:53:04;19.13;;;10.63;;
63945;SDS011;50122;56.330;43.838;2023-02-01T02:55:56;19.50;;;11.15;;
63945;SDS011;50122;56.330;43.838;2023-02-01T02:58:43;21.30;;;10.35;;
63945;SDS011;50122;56.330;43.838;2023-02-01T03:01:31;18.63;;;10.30;;
63945;SDS011;50122;56.330;43.838;2023-02-01T03:04:17;18.38;;;10.68;;
63945;SDS011;50122;56.330;43.838;2023-02-01T03:06:44;23.17;;;12.77;;
63945;SDS011;50122;56.330;43.838;2023-02-01T03:09:19;19.38;;;11.27;;
63945;SDS011;50122;56.330;43.838;2023-02-01T03:11:47;23.08;;;12.45;;
63945;SDS011;50122;56.330;43.838;2023-02-01T03:14:37;22.80;;;11.63;;
63945;SDS011;50122;56.330;43.838;2023-02-01T03:17:11;21.70;;;11.93;;
63945;SDS011;50122;56.330;43.838;2023-02-01T03:19:45;19.10;;;10.55;;
63945;SDS011;50122;56.330;43.838;2023-02-01T03:22:18;21.20;;;11.07;;
63945;SDS011;50122;56.330;43.838;2023-02-01T03:24:54;21.65;;;10.82;;
63945;SDS011;50122;56.330;43.838;2023-02-01T03:27:29;19.63;;;10.70;;
63945;SDS011;50122;56.330;43.838;2023-02-01T03:30:08;23.15;;;12.32;;
63945;SDS011;50122;56.330;43.838;2023-02-01T03:32:44;21.33;;;10.95;;
63945;SDS011;50122;56.330;43.838;2023-02-01T03:35:31;18.20;;;10.57;;
63945;SDS011;50122;56.330;43.838;2023-02-01T03:38:02;21.45;;;12.02;;
63945;SDS011;50122;56.330;43.838;2023-02-01T03:40:36;22.00;;;12.48;;
63945;SDS011;50122;56.330;43.838;2023-02-01T03:43:06;20.73;;;11.23;;
63945;SDS011;50122;56.330;43.838;2023-02-01T03:45:42;20.27;;;10.65;;
63945;SDS011;50122;56.330;43.838;2023-02-01T03:48:13;20.05;;;11.68;;
63945;SDS011;50122;56.330;43.838;2023-02-01T03:50:44;22.33;;;12.15;;
63945;SDS011;50122;56.330;43.838;2023-02-01T03:53:16;20.20;;;10.43;;
63945;SDS011;50122;56.330;43.838;2023-02-01T03:55:46;19.33;;;11.68;;
63945;SDS011;50122;56.330;43.838;2023-02-01T03:58:14;19.67;;;11.23;;
63945;SDS011;50122;56.330;43.838;2023-02-01T04:00:46;20.38;;;11.50;;
63945;SDS011;50122;56.330;43.838;2023-02-01T04:03:18;21.67;;;11.93;;
63945;SDS011;50122;56.330;43.838;2023-02-01T04:05:44;21.73;;;11.90;;
63945;SDS011;50122;56.330;43.838;2023-02-01T04:08:12;21.33;;;11.68;;
63945;SDS011;50122;56.330;43.838;2023-02-01T04:10:38;21.60;;;11.65;;
63945;SDS011;50122;56.330;43.838;2023-02-01T04:13:05;22.30;;;11.93;;
63945;SDS011;50122;56.330;43.838;2023-02-01T04:15:32;19.80;;;11.52;;
63945;SDS011;50122;56.330;43.838;2023-02-01T04:18:01;19.35;;;10.85;;
63945;SDS011;50122;56.330;43.838;2023-02-01T04:20:28;23.42;;;13.40;;
63945;SDS011;50122;56.330;43.838;2023-02-01T04:22:54;20.48;;;11.65;;
63945;SDS011;50122;56.330;43.838;2023-02-01T04:25:21;21.58;;;11.45;;
63945;SDS011;50122;56.330;43.838;2023-02-01T04:27:47;19.95;;;11.23;;
63945;SDS011;50122;56.330;43.838;2023-02-01T04:30:14;21.17;;;11.13;;
63945;SDS011;50122;56.330;43.838;2023-02-01T04:32:41;21.33;;;12.27;;
63945;SDS011;50122;56.330;43.838;2023-02-01T04:35:08;20.88;;;12.18;;
63945;SDS011;50122;56.330;43.838;2023-02-01T04:37:35;18.23;;;10.88;;
63945;SDS011;50122;56.330;43.838;2023-02-01T04:40:06;22.33;;;11.23;;
63945;SDS011;50122;56.330;43.838;2023-02-01T04:42:33;30.40;;;16.13;;
63945;SDS011;50122;56.330;43.838;2023-02-01T04:45:00;19.70;;;10.95;;
63945;SDS011;50122;56.330;43.838;2023-02-01T04:47:27;22.95;;;12.55;;
63945;SDS011;50122;56.330;43.838;2023-02-01T04:49:54;21.50;;;11.45;;
63945;SDS011;50122;56.330;43.838;2023-02-01T04:52:22;22.45;;;13.50;;
63945;SDS011;50122;56.330;43.838;2023-02-01T04:54:49;22.83;;;12.75;;
63945;SDS011;50122;56.330;43.838;2023-02-01T04:57:15;22.63;;;12.18;;
63945;SDS011;50122;56.330;43.838;2023-02-01T04:59:42;20.65;;;10.40;;
63945;SDS011;50122;56.330;43.838;2023-02-01T05:02:08;23.60;;;12.38;;
63945;SDS011;50122;56.330;43.838;2023-02-01T05:04:35;23.77;;;12.07;;
63945;SDS011;50122;56.330;43.838;2023-02-01T05:07:02;21.23;;;11.30;;
63945;SDS011;50122;56.330;43.838;2023-02-01T05:09:28;20.88;;;11.88;;
63945;SDS011;50122;56.330;43.838;2023-02-01T05:11:55;24.73;;;12.98;;
63945;SDS011;50122;56.330;43.838;2023-02-01T05:14:41;23.58;;;12.60;;
63945;SDS011;50122;56.330;43.838;2023-02-01T05:17:08;23.55;;;12.35;;
63945;SDS011;50122;56.330;43.838;2023-02-01T05:19:34;24.92;;;12.88;;
63945;SDS011;50122;56.330;43.838;2023-02-01T05:22:01;21.40;;;11.77;;
63945;SDS011;50122;56.330;43.838;2023-02-01T05:24:28;21.77;;;12.10;;
63945;SDS011;50122;56.330;43.838;2023-02-01T05:26:54;22.70;;;11.90;;
63945;SDS011;50122;56.330;43.838;2023-02-01T05:29:21;24.25;;;13.13;;
